Terminal Aerodrome Forecast
Issued by NWS Omaha/Valley, NE

Home | Current Version | Previous Version | Text Only | Print | Product List | Glossary On
Versions: 1 2 3 4 5 6 7 8 9 10 11 12 13 14 15
000
FTUS43 KOAX 301120
TAFOMA
TAF
KOMA 301120Z 3012/3112 30008KT P6SM FEW100
     FM301700 33018G28KT P6SM SCT050
     FM310100 34014G22KT P6SM BKN020
     FM311000 35012G20KT P6SM SCT020=

USA.gov is the U.S. government's official web portal to all federal, state and local government web resources and services.